Island Explorer — WDH8636 — position and weather

sailwx.info

Track history (hours):
 
Tides and Currents Weather Stations Pressure Air Temp Water Temp Dewpoint Dewpoint Depression Visibility Wind Speed Wind Dir Waves Ship Positions

Island Explorer

Owner: Stevens Towing Co., Inc, Yonges Island, SC. More information available from US FCC via Universal Licensing System and Coast Guard Vessel Documentation Center.

Last reported at 2017-Oct-18 16:23 UTC. Time now 2017-Oct-18 23:40 UTC.
Position N 35°08' W 076°30'.

Length 19 m.

MMSI: 367660050.

Date/timePositionNaut miles runAvg speedWind from/ knotsBaromVisibWave heightAir tempDewpointWater temp
2017-Oct-18 16:23N 35°08' W 076°30'2 5.7
2017-Oct-18 15:59N 35°06' W 076°32'11 5.3
2017-Oct-18 13:56N 34°59' W 076°42'3 5.2
2017-Oct-18 13:18N 34°56' W 076°39'2 5.8
2017-Oct-18 13:00N 34°54' W 076°40'3 5.3
2017-Oct-18 12:31N 34°52' W 076°41'3 6.4
2017-Oct-18 12:01N 34°49' W 076°41'3 6.1
2017-Oct-18 11:31N 34°46' W 076°41'3 5.2
2017-Oct-18 11:00N 34°43' W 076°42'0 0.0
2017-Oct-18 10:31N 34°43' W 076°42'0 0.0
2017-Oct-18 10:01N 34°43' W 076°42'0 0.0
2017-Oct-18 09:30N 34°43' W 076°42'0 0.0
2017-Oct-18 09:00N 34°43' W 076°42'0 0.0
2017-Oct-18 08:30N 34°43' W 076°42'0 0.0
2017-Oct-18 08:01N 34°43' W 076°42'0 0.0
2017-Oct-18 07:31N 34°43' W 076°42'0 0.0
2017-Oct-18 07:01N 34°43' W 076°42'1 1.0
2017-Oct-18 06:31N 34°43' W 076°42'0 0.3
2017-Oct-18 06:00N 34°43' W 076°42'0 0.0
2017-Oct-18 05:31N 34°43' W 076°42'0 0.1
2017-Oct-18 05:01N 34°43' W 076°42'0 0.5
2017-Oct-18 04:31N 34°43' W 076°42'0 0.0
2017-Oct-18 04:01N 34°43' W 076°42'0 0.2
2017-Oct-18 03:31N 34°43' W 076°42'0 0.0
2017-Oct-18 03:01N 34°43' W 076°42'0 0.0
2017-Oct-18 02:30N 34°43' W 076°42'0 0.0
2017-Oct-18 02:00N 34°43' W 076°42'0 0.0
2017-Oct-18 01:31N 34°43' W 076°42'1 1.1
2017-Oct-18 01:01N 34°43' W 076°42'1 1.2
2017-Oct-18 00:31N 34°43' W 076°42'0 0.0
2017-Oct-18 00:01N 34°43' W 076°42'0 0.3
2017-Oct-17 23:31N 34°43' W 076°42'0 0.0
2017-Oct-17 23:01N 34°43' W 076°42'0 0.0
2017-Oct-17 22:31N 34°43' W 076°42'0 0.0
2017-Oct-17 22:00N 34°43' W 076°42'0 0.0
2017-Oct-17 21:31N 34°43' W 076°42'0 0.0
2017-Oct-17 21:01N 34°43' W 076°42'0 0.0
2017-Oct-17 20:31N 34°43' W 076°42'0 0.0
2017-Oct-17 20:01N 34°43' W 076°42'0 0.0
2017-Oct-17 19:31N 34°43' W 076°42'0 0.0
2017-Oct-17 19:01N 34°43' W 076°42'0 0.1
2017-Oct-17 18:31N 34°43' W 076°42'0 0.2
2017-Oct-17 18:00N 34°43' W 076°42'0 0.0
2017-Oct-17 17:31N 34°43' W 076°42'0 0.0
2017-Oct-17 17:00N 34°43' W 076°42'0 0.0
2017-Oct-17 16:30N 34°43' W 076°42'0 0.0
2017-Oct-17 16:01N 34°43' W 076°42'0 0.0
2017-Oct-17 15:31N 34°43' W 076°42'0 0.9
2017-Oct-17 15:01N 34°43' W 076°41'0 0.9
2017-Oct-17 14:31N 34°43' W 076°42'1 1.3
2017-Oct-17 14:00N 34°43' W 076°42'0 0.3
2017-Oct-17 13:31N 34°43' W 076°42'0 0.0
2017-Oct-17 13:00N 34°43' W 076°42'0 0.0
2017-Oct-17 12:31N 34°43' W 076°42'0 0.5
2017-Oct-17 12:00N 34°43' W 076°42'0 0.0
2017-Oct-17 11:31N 34°43' W 076°42'0 0.0
2017-Oct-17 11:01N 34°43' W 076°42'0 0.0
2017-Oct-17 10:31N 34°43' W 076°42'0 0.0
2017-Oct-17 10:00N 34°43' W 076°42'0 0.0
2017-Oct-17 09:31N 34°43' W 076°42'0 0.0
2017-Oct-17 09:01N 34°43' W 076°42'0 0.0
2017-Oct-17 08:30N 34°43' W 076°42'0 0.0
2017-Oct-17 08:01N 34°43' W 076°42'0 0.0
2017-Oct-17 07:31N 34°43' W 076°42'0 0.0
2017-Oct-17 07:00N 34°43' W 076°42'0 0.0
2017-Oct-17 06:30N 34°43' W 076°42'0 0.0
2017-Oct-17 06:01N 34°43' W 076°42'0 0.0
2017-Oct-17 05:31N 34°43' W 076°42'0 0.0
2017-Oct-17 05:00N 34°43' W 076°42'0 0.0
2017-Oct-17 04:31N 34°43' W 076°42'0 0.0
2017-Oct-17 04:01N 34°43' W 076°42'0 0.1
2017-Oct-17 03:31N 34°43' W 076°42'0 0.8
2017-Oct-17 03:01N 34°43' W 076°41'0 0.0
2017-Oct-17 02:30N 34°43' W 076°41'0 0.0
2017-Oct-17 02:01N 34°43' W 076°41'0 0.0
2017-Oct-17 01:31N 34°43' W 076°41'0 0.0
2017-Oct-17 01:01N 34°43' W 076°41'0 0.0
2017-Oct-17 00:30N 34°43' W 076°41'0 0.0
2017-Oct-17 00:01N 34°43' W 076°41'0 0.0
2017-Oct-16 23:31N 34°43' W 076°41'0 0.0
2017-Oct-16 23:01N 34°43' W 076°41'0 0.8
2017-Oct-16 22:31N 34°43' W 076°42'0 0.0
2017-Oct-16 22:01N 34°43' W 076°42'0 0.0
2017-Oct-16 21:30N 34°43' W 076°42'0 0.0
2017-Oct-16 21:00N 34°43' W 076°42'0 0.0
2017-Oct-16 20:30N 34°43' W 076°42'0 0.7
2017-Oct-16 20:01N 34°43' W 076°42'1 1.4
2017-Oct-16 19:31N 34°43' W 076°42'0 0.9
2017-Oct-16 19:01N 34°43' W 076°42'0 0.9
2017-Oct-16 18:30N 34°43' W 076°42'0 0.2
2017-Oct-16 18:01N 34°43' W 076°42'0 0.0
2017-Oct-16 17:31N 34°43' W 076°42'0 0.0
2017-Oct-16 17:01N 34°43' W 076°42'0 0.0
2017-Oct-16 16:31N 34°43' W 076°42'0 0.0
2017-Oct-16 16:00N 34°43' W 076°42'0 0.0
2017-Oct-16 15:31N 34°43' W 076°42'0 0.7
2017-Oct-16 15:00N 34°43' W 076°42'0 0.0
2017-Oct-16 14:30N 34°43' W 076°42'0 0.0
2017-Oct-16 13:31N 34°43' W 076°42'0 0.0
2017-Oct-16 13:00N 34°43' W 076°42'0 0.0
2017-Oct-16 12:31N 34°43' W 076°42'0 0.0
2017-Oct-16 12:01N 34°43' W 076°42'1 1.3
2017-Oct-16 11:31N 34°43' W 076°41'1 1.2
2017-Oct-16 11:01N 34°44' W 076°42'1 1.2
2017-Oct-16 10:31N 34°43' W 076°41'0 0.4
2017-Oct-16 10:01N 34°43' W 076°42'0 0.3
2017-Oct-16 09:31N 34°43' W 076°42'0 0.0
2017-Oct-16 09:00N 34°43' W 076°42'0 0.0
2017-Oct-16 08:31N 34°43' W 076°42'0 0.0
2017-Oct-16 08:01N 34°43' W 076°42'0 0.0
2017-Oct-16 07:30N 34°43' W 076°42'0 0.0
2017-Oct-16 07:00N 34°43' W 076°42'0 0.0
2017-Oct-16 06:30N 34°43' W 076°42'0 0.0
2017-Oct-16 06:00N 34°43' W 076°42'0 0.0
2017-Oct-16 05:31N 34°43' W 076°42'0 0.0
2017-Oct-16 05:01N 34°43' W 076°42'0 0.4
2017-Oct-16 04:30N 34°43' W 076°42'0 0.0
2017-Oct-16 04:01N 34°43' W 076°42'0 0.0
2017-Oct-16 03:31N 34°43' W 076°42'0 0.0
2017-Oct-16 03:00N 34°43' W 076°42'0 0.2
2017-Oct-16 02:31N 34°43' W 076°42'0 0.4
2017-Oct-16 02:00N 34°43' W 076°42'0 0.0
2017-Oct-16 01:30N 34°43' W 076°42'0 0.2
2017-Oct-16 01:00N 34°43' W 076°42'0 0.0
2017-Oct-16 00:30N 34°43' W 076°42'0 0.0
2017-Oct-16 00:01N 34°43' W 076°42'0 0.0
2017-Oct-15 23:31N 34°43' W 076°42'0 0.0
2017-Oct-15 23:01N 34°43' W 076°42'0 0.0
2017-Oct-15 22:31N 34°43' W 076°42'0 0.0
2017-Oct-15 22:00N 34°43' W 076°42'0 0.0
2017-Oct-15 21:30N 34°43' W 076°42'0 0.0
2017-Oct-15 21:00N 34°43' W 076°42'0 0.0
2017-Oct-15 20:31N 34°43' W 076°42'0 0.1
2017-Oct-15 20:01N 34°43' W 076°42'0 0.0
2017-Oct-15 19:31N 34°43' W 076°42'0 0.0
2017-Oct-15 19:01N 34°43' W 076°42'0 0.0
2017-Oct-15 18:31N 34°43' W 076°42'0 0.0
2017-Oct-15 18:01N 34°43' W 076°42'0 0.0
2017-Oct-15 17:31N 34°43' W 076°42'0 0.0
2017-Oct-15 17:00N 34°43' W 076°42'0 0.0
2017-Oct-15 16:31N 34°43' W 076°42'0 0.0
2017-Oct-15 16:00N 34°43' W 076°42'0 0.0
2017-Oct-15 15:31N 34°43' W 076°42'0 0.0
2017-Oct-15 15:00N 34°43' W 076°42'0 0.0
2017-Oct-15 14:01N 34°43' W 076°42'0 0.0
2017-Oct-15 13:30N 34°43' W 076°42'0 0.2
2017-Oct-15 13:01N 34°43' W 076°42'0 0.0
2017-Oct-15 12:31N 34°43' W 076°42'0 0.2
2017-Oct-15 12:01N 34°43' W 076°42'0 0.0
2017-Oct-15 11:31N 34°43' W 076°42'0 0.0
2017-Oct-15 11:00N 34°43' W 076°42'0 0.0
2017-Oct-15 10:31N 34°43' W 076°42'0 0.0
2017-Oct-15 10:01N 34°43' W 076°42'0 0.0
2017-Oct-15 09:31N 34°43' W 076°42'0 0.0
2017-Oct-15 09:01N 34°43' W 076°42'0 0.4
2017-Oct-15 08:31N 34°43' W 076°42'0 0.0
2017-Oct-15 08:01N 34°43' W 076°42'0 0.0
2017-Oct-15 07:31N 34°43' W 076°42'0 0.0
2017-Oct-15 07:00N 34°43' W 076°42'0 0.0
2017-Oct-15 06:30N 34°43' W 076°42'0 0.0
2017-Oct-15 06:00N 34°43' W 076°42'0 0.0
2017-Oct-15 05:30N 34°43' W 076°42'0 0.0
2017-Oct-15 05:00N 34°43' W 076°42'0 0.0
2017-Oct-15 04:31N 34°43' W 076°42'0 0.0
2017-Oct-15 04:01N 34°43' W 076°42'0 0.0
2017-Oct-15 03:30N 34°43' W 076°42'0 0.0
2017-Oct-15 03:01N 34°43' W 076°42'0 0.0
2017-Oct-15 02:30N 34°43' W 076°42'0 0.0
2017-Oct-15 02:00N 34°43' W 076°42'0 0.0
2017-Oct-15 01:31N 34°43' W 076°42'0 0.0
2017-Oct-15 01:01N 34°43' W 076°42'0 0.2
2017-Oct-15 00:30N 34°43' W 076°42'0 0.0
2017-Oct-15 00:01N 34°43' W 076°42'0 0.9
2017-Oct-14 23:30N 34°43' W 076°41'0 0.6
2017-Oct-14 23:01N 34°43' W 076°42'0 0.8
2017-Oct-14 22:30N 34°43' W 076°42'0 0.2
2017-Oct-14 22:00N 34°43' W 076°42'0 0.0
2017-Oct-14 21:31N 34°43' W 076°42'0 0.0
2017-Oct-14 21:00N 34°43' W 076°42'0 0.0
2017-Oct-14 20:31N 34°43' W 076°42'0 0.0
2017-Oct-14 20:01N 34°43' W 076°42'0 0.0
2017-Oct-14 19:31N 34°43' W 076°42'0 0.0
2017-Oct-14 19:01N 34°43' W 076°42'0 0.0
2017-Oct-14 18:31N 34°43' W 076°42'0 0.0
2017-Oct-14 18:00N 34°43' W 076°42'0 0.0
2017-Oct-14 17:31N 34°43' W 076°42'0 0.0
2017-Oct-14 17:00N 34°43' W 076°42'0 0.0
2017-Oct-14 16:31N 34°43' W 076°42'0 0.0
2017-Oct-14 16:01N 34°43' W 076°42'0 0.0
2017-Oct-14 15:31N 34°43' W 076°42'0 0.0
2017-Oct-14 15:01N 34°43' W 076°42'0 0.0
2017-Oct-14 14:30N 34°43' W 076°42'0 0.0
2017-Oct-14 14:00N 34°43' W 076°42'0 0.0
2017-Oct-14 13:31N 34°43' W 076°42'0 0.0
2017-Oct-14 13:01N 34°43' W 076°42'0 0.0
2017-Oct-14 12:30N 34°43' W 076°42'0 0.0
2017-Oct-14 12:01N 34°43' W 076°42'0 0.0
2017-Oct-14 11:31N 34°43' W 076°42'0 0.0
2017-Oct-14 11:00N 34°43' W 076°42'0 0.0
2017-Oct-14 10:31N 34°43' W 076°42'0 0.0
2017-Oct-14 10:00N 34°43' W 076°42'0 0.0
2017-Oct-14 09:30N 34°43' W 076°42'0 0.0
2017-Oct-14 09:01N 34°43' W 076°42'0 0.0
2017-Oct-14 08:31N 34°43' W 076°42'0 0.0
2017-Oct-14 08:00N 34°43' W 076°42'0 0.0
2017-Oct-14 07:30N 34°43' W 076°42'0 0.0
2017-Oct-14 07:00N 34°43' W 076°42'0 0.0
2017-Oct-14 06:31N 34°43' W 076°42'0 0.0
2017-Oct-14 06:00N 34°43' W 076°42'1 1.0
2017-Oct-14 05:31N 34°43' W 076°42'1 2.1
2017-Oct-14 05:00N 34°44' W 076°41'3 5.6
2017-Oct-14 04:30N 34°47' W 076°41'4 8.0
2017-Oct-14 04:01N 34°51' W 076°41'4 7.2
2017-Oct-14 03:29N 34°54' W 076°40'3 6.2
2017-Oct-14 03:01N 34°57' W 076°41'  
2017-Oct-09 14:44N 34°59' W 076°42'3 8.0
2017-Oct-09 14:20N 34°56' W 076°39'3 7.6
2017-Oct-09 14:01N 34°54' W 076°41'4 7.3
2017-Oct-09 13:31N 34°50' W 076°41'3 6.5
2017-Oct-09 13:01N 34°47' W 076°41'4 8.1
2017-Oct-09 12:31N 34°43' W 076°42'1 1.0
2017-Oct-09 12:01N 34°43' W 076°42'0 0.0
2017-Oct-09 11:30N 34°43' W 076°42'0 0.0
2017-Oct-09 11:01N 34°43' W 076°42'0 0.0
2017-Oct-09 10:30N 34°43' W 076°42'0 0.0
2017-Oct-09 10:00N 34°43' W 076°42'0 0.0
2017-Oct-09 09:30N 34°43' W 076°42'0 0.0
2017-Oct-09 09:01N 34°43' W 076°42'0 0.0
2017-Oct-09 08:30N 34°43' W 076°42'0 0.0
2017-Oct-09 08:01N 34°43' W 076°42'0 0.0
2017-Oct-09 07:31N 34°43' W 076°42'0 0.0
2017-Oct-09 07:00N 34°43' W 076°42'0 0.0
2017-Oct-09 06:31N 34°43' W 076°42'0 0.0
2017-Oct-09 06:00N 34°43' W 076°42'0 0.0
2017-Oct-09 05:31N 34°43' W 076°42'0 0.0
2017-Oct-09 05:01N 34°43' W 076°42'0 0.0
2017-Oct-09 04:31N 34°43' W 076°42'0 0.0
2017-Oct-09 04:01N 34°43' W 076°42'0 0.0
2017-Oct-09 03:30N 34°43' W 076°42'0 0.0
2017-Oct-09 03:00N 34°43' W 076°42'0 0.0
2017-Oct-09 02:30N 34°43' W 076°42'0 0.0
2017-Oct-09 02:00N 34°43' W 076°42'0 0.0
2017-Oct-09 01:30N 34°43' W 076°42'0 0.0
2017-Oct-09 01:01N 34°43' W 076°42'0 0.8
2017-Oct-09 00:30N 34°43' W 076°42'1 1.9
2017-Oct-09 00:01N 34°44' W 076°41'3 5.1
2017-Oct-08 23:31N 34°46' W 076°41'4 7.1
2017-Oct-08 23:01N 34°50' W 076°41'4 7.8
2017-Oct-08 22:30N 34°54' W 076°41'3 6.3
2017-Oct-08 22:01N 34°57' W 076°40'  
Track history (hours):
 
Tides and Currents Weather Stations Pressure Air Temp Water Temp Dewpoint Dewpoint Depression Visibility Wind Speed Wind Dir Waves Ship Positions

Island Explorer

Owner: Stevens Towing Co., Inc, Yonges Island, SC. More information available from US FCC via Universal Licensing System and Coast Guard Vessel Documentation Center.

Last reported at 2017-Oct-18 16:23 UTC. Time now 2017-Oct-18 23:40 UTC.
Position N 35°08' W 076°30'.

Length 19 m.

MMSI: 367660050.

Date/timePositionNaut miles runAvg speedWind from/ knotsBaromVisibWave heightAir tempDewpointWater temp
2017-Oct-18 16:23N 35°08' W 076°30'2 5.7
2017-Oct-18 15:59N 35°06' W 076°32'11 5.3
2017-Oct-18 13:56N 34°59' W 076°42'3 5.2
2017-Oct-18 13:18N 34°56' W 076°39'2 5.8
2017-Oct-18 13:00N 34°54' W 076°40'3 5.3
2017-Oct-18 12:31N 34°52' W 076°41'3 6.4
2017-Oct-18 12:01N 34°49' W 076°41'3 6.1
2017-Oct-18 11:31N 34°46' W 076°41'3 5.2
2017-Oct-18 11:00N 34°43' W 076°42'0 0.0
2017-Oct-18 10:31N 34°43' W 076°42'0 0.0
2017-Oct-18 10:01N 34°43' W 076°42'0 0.0
2017-Oct-18 09:30N 34°43' W 076°42'0 0.0
2017-Oct-18 09:00N 34°43' W 076°42'0 0.0
2017-Oct-18 08:30N 34°43' W 076°42'0 0.0
2017-Oct-18 08:01N 34°43' W 076°42'0 0.0
2017-Oct-18 07:31N 34°43' W 076°42'0 0.0
2017-Oct-18 07:01N 34°43' W 076°42'1 1.0
2017-Oct-18 06:31N 34°43' W 076°42'0 0.3
2017-Oct-18 06:00N 34°43' W 076°42'0 0.0
2017-Oct-18 05:31N 34°43' W 076°42'0 0.1
2017-Oct-18 05:01N 34°43' W 076°42'0 0.5
2017-Oct-18 04:31N 34°43' W 076°42'0 0.0
2017-Oct-18 04:01N 34°43' W 076°42'0 0.2
2017-Oct-18 03:31N 34°43' W 076°42'0 0.0
2017-Oct-18 03:01N 34°43' W 076°42'0 0.0
2017-Oct-18 02:30N 34°43' W 076°42'0 0.0
2017-Oct-18 02:00N 34°43' W 076°42'0 0.0
2017-Oct-18 01:31N 34°43' W 076°42'1 1.1
2017-Oct-18 01:01N 34°43' W 076°42'1 1.2
2017-Oct-18 00:31N 34°43' W 076°42'0 0.0
2017-Oct-18 00:01N 34°43' W 076°42'0 0.3
2017-Oct-17 23:31N 34°43' W 076°42'0 0.0
2017-Oct-17 23:01N 34°43' W 076°42'0 0.0
2017-Oct-17 22:31N 34°43' W 076°42'0 0.0
2017-Oct-17 22:00N 34°43' W 076°42'0 0.0
2017-Oct-17 21:31N 34°43' W 076°42'0 0.0
2017-Oct-17 21:01N 34°43' W 076°42'0 0.0
2017-Oct-17 20:31N 34°43' W 076°42'0 0.0
2017-Oct-17 20:01N 34°43' W 076°42'0 0.0
2017-Oct-17 19:31N 34°43' W 076°42'0 0.0
2017-Oct-17 19:01N 34°43' W 076°42'0 0.1
2017-Oct-17 18:31N 34°43' W 076°42'0 0.2
2017-Oct-17 18:00N 34°43' W 076°42'0 0.0
2017-Oct-17 17:31N 34°43' W 076°42'0 0.0
2017-Oct-17 17:00N 34°43' W 076°42'0 0.0
2017-Oct-17 16:30N 34°43' W 076°42'0 0.0
2017-Oct-17 16:01N 34°43' W 076°42'0 0.0
2017-Oct-17 15:31N 34°43' W 076°42'0 0.9
2017-Oct-17 15:01N 34°43' W 076°41'0 0.9
2017-Oct-17 14:31N 34°43' W 076°42'1 1.3
2017-Oct-17 14:00N 34°43' W 076°42'0 0.3
2017-Oct-17 13:31N 34°43' W 076°42'0 0.0
2017-Oct-17 13:00N 34°43' W 076°42'0 0.0
2017-Oct-17 12:31N 34°43' W 076°42'0 0.5
2017-Oct-17 12:00N 34°43' W 076°42'0 0.0
2017-Oct-17 11:31N 34°43' W 076°42'0 0.0
2017-Oct-17 11:01N 34°43' W 076°42'0 0.0
2017-Oct-17 10:31N 34°43' W 076°42'0 0.0
2017-Oct-17 10:00N 34°43' W 076°42'0 0.0
2017-Oct-17 09:31N 34°43' W 076°42'0 0.0
2017-Oct-17 09:01N 34°43' W 076°42'0 0.0
2017-Oct-17 08:30N 34°43' W 076°42'0 0.0
2017-Oct-17 08:01N 34°43' W 076°42'0 0.0
2017-Oct-17 07:31N 34°43' W 076°42'0 0.0
2017-Oct-17 07:00N 34°43' W 076°42'0 0.0
2017-Oct-17 06:30N 34°43' W 076°42'0 0.0
2017-Oct-17 06:01N 34°43' W 076°42'0 0.0
2017-Oct-17 05:31N 34°43' W 076°42'0 0.0
2017-Oct-17 05:00N 34°43' W 076°42'0 0.0
2017-Oct-17 04:31N 34°43' W 076°42'0 0.0
2017-Oct-17 04:01N 34°43' W 076°42'0 0.1
2017-Oct-17 03:31N 34°43' W 076°42'0 0.8
2017-Oct-17 03:01N 34°43' W 076°41'0 0.0
2017-Oct-17 02:30N 34°43' W 076°41'0 0.0
2017-Oct-17 02:01N 34°43' W 076°41'0 0.0
2017-Oct-17 01:31N 34°43' W 076°41'0 0.0
2017-Oct-17 01:01N 34°43' W 076°41'0 0.0
2017-Oct-17 00:30N 34°43' W 076°41'0 0.0
2017-Oct-17 00:01N 34°43' W 076°41'0 0.0
2017-Oct-16 23:31N 34°43' W 076°41'0 0.0
2017-Oct-16 23:01N 34°43' W 076°41'0 0.8
2017-Oct-16 22:31N 34°43' W 076°42'0 0.0
2017-Oct-16 22:01N 34°43' W 076°42'0 0.0
2017-Oct-16 21:30N 34°43' W 076°42'0 0.0
2017-Oct-16 21:00N 34°43' W 076°42'0 0.0
2017-Oct-16 20:30N 34°43' W 076°42'0 0.7
2017-Oct-16 20:01N 34°43' W 076°42'1 1.4
2017-Oct-16 19:31N 34°43' W 076°42'0 0.9
2017-Oct-16 19:01N 34°43' W 076°42'0 0.9
2017-Oct-16 18:30N 34°43' W 076°42'0 0.2
2017-Oct-16 18:01N 34°43' W 076°42'0 0.0
2017-Oct-16 17:31N 34°43' W 076°42'0 0.0
2017-Oct-16 17:01N 34°43' W 076°42'0 0.0
2017-Oct-16 16:31N 34°43' W 076°42'0 0.0
2017-Oct-16 16:00N 34°43' W 076°42'0 0.0
2017-Oct-16 15:31N 34°43' W 076°42'0 0.7
2017-Oct-16 15:00N 34°43' W 076°42'0 0.0
2017-Oct-16 14:30N 34°43' W 076°42'0 0.0
2017-Oct-16 13:31N 34°43' W 076°42'0 0.0
2017-Oct-16 13:00N 34°43' W 076°42'0 0.0
2017-Oct-16 12:31N 34°43' W 076°42'0 0.0
2017-Oct-16 12:01N 34°43' W 076°42'1 1.3
2017-Oct-16 11:31N 34°43' W 076°41'1 1.2
2017-Oct-16 11:01N 34°44' W 076°42'1 1.2
2017-Oct-16 10:31N 34°43' W 076°41'0 0.4
2017-Oct-16 10:01N 34°43' W 076°42'0 0.3
2017-Oct-16 09:31N 34°43' W 076°42'0 0.0
2017-Oct-16 09:00N 34°43' W 076°42'0 0.0
2017-Oct-16 08:31N 34°43' W 076°42'0 0.0
2017-Oct-16 08:01N 34°43' W 076°42'0 0.0
2017-Oct-16 07:30N 34°43' W 076°42'0 0.0
2017-Oct-16 07:00N 34°43' W 076°42'0 0.0
2017-Oct-16 06:30N 34°43' W 076°42'0 0.0
2017-Oct-16 06:00N 34°43' W 076°42'0 0.0
2017-Oct-16 05:31N 34°43' W 076°42'0 0.0
2017-Oct-16 05:01N 34°43' W 076°42'0 0.4
2017-Oct-16 04:30N 34°43' W 076°42'0 0.0
2017-Oct-16 04:01N 34°43' W 076°42'0 0.0
2017-Oct-16 03:31N 34°43' W 076°42'0 0.0
2017-Oct-16 03:00N 34°43' W 076°42'0 0.2
2017-Oct-16 02:31N 34°43' W 076°42'0 0.4
2017-Oct-16 02:00N 34°43' W 076°42'0 0.0
2017-Oct-16 01:30N 34°43' W 076°42'0 0.2
2017-Oct-16 01:00N 34°43' W 076°42'0 0.0
2017-Oct-16 00:30N 34°43' W 076°42'0 0.0
2017-Oct-16 00:01N 34°43' W 076°42'0 0.0
2017-Oct-15 23:31N 34°43' W 076°42'0 0.0
2017-Oct-15 23:01N 34°43' W 076°42'0 0.0
2017-Oct-15 22:31N 34°43' W 076°42'0 0.0
2017-Oct-15 22:00N 34°43' W 076°42'0 0.0
2017-Oct-15 21:30N 34°43' W 076°42'0 0.0
2017-Oct-15 21:00N 34°43' W 076°42'0 0.0
2017-Oct-15 20:31N 34°43' W 076°42'0 0.1
2017-Oct-15 20:01N 34°43' W 076°42'0 0.0
2017-Oct-15 19:31N 34°43' W 076°42'0 0.0
2017-Oct-15 19:01N 34°43' W 076°42'0 0.0
2017-Oct-15 18:31N 34°43' W 076°42'0 0.0
2017-Oct-15 18:01N 34°43' W 076°42'0 0.0
2017-Oct-15 17:31N 34°43' W 076°42'0 0.0
2017-Oct-15 17:00N 34°43' W 076°42'0 0.0
2017-Oct-15 16:31N 34°43' W 076°42'0 0.0
2017-Oct-15 16:00N 34°43' W 076°42'0 0.0
2017-Oct-15 15:31N 34°43' W 076°42'0 0.0
2017-Oct-15 15:00N 34°43' W 076°42'0 0.0
2017-Oct-15 14:01N 34°43' W 076°42'0 0.0
2017-Oct-15 13:30N 34°43' W 076°42'0 0.2
2017-Oct-15 13:01N 34°43' W 076°42'0 0.0
2017-Oct-15 12:31N 34°43' W 076°42'0 0.2
2017-Oct-15 12:01N 34°43' W 076°42'0 0.0
2017-Oct-15 11:31N 34°43' W 076°42'0 0.0
2017-Oct-15 11:00N 34°43' W 076°42'0 0.0
2017-Oct-15 10:31N 34°43' W 076°42'0 0.0
2017-Oct-15 10:01N 34°43' W 076°42'0 0.0
2017-Oct-15 09:31N 34°43' W 076°42'0 0.0
2017-Oct-15 09:01N 34°43' W 076°42'0 0.4
2017-Oct-15 08:31N 34°43' W 076°42'0 0.0
2017-Oct-15 08:01N 34°43' W 076°42'0 0.0
2017-Oct-15 07:31N 34°43' W 076°42'0 0.0
2017-Oct-15 07:00N 34°43' W 076°42'0 0.0
2017-Oct-15 06:30N 34°43' W 076°42'0 0.0
2017-Oct-15 06:00N 34°43' W 076°42'0 0.0
2017-Oct-15 05:30N 34°43' W 076°42'0 0.0
2017-Oct-15 05:00N 34°43' W 076°42'0 0.0
2017-Oct-15 04:31N 34°43' W 076°42'0 0.0
2017-Oct-15 04:01N 34°43' W 076°42'0 0.0
2017-Oct-15 03:30N 34°43' W 076°42'0 0.0
2017-Oct-15 03:01N 34°43' W 076°42'0 0.0
2017-Oct-15 02:30N 34°43' W 076°42'0 0.0
2017-Oct-15 02:00N 34°43' W 076°42'0 0.0
2017-Oct-15 01:31N 34°43' W 076°42'0 0.0
2017-Oct-15 01:01N 34°43' W 076°42'0 0.2
2017-Oct-15 00:30N 34°43' W 076°42'0 0.0
2017-Oct-15 00:01N 34°43' W 076°42'0 0.9
2017-Oct-14 23:30N 34°43' W 076°41'0 0.6
2017-Oct-14 23:01N 34°43' W 076°42'0 0.8
2017-Oct-14 22:30N 34°43' W 076°42'0 0.2
2017-Oct-14 22:00N 34°43' W 076°42'0 0.0
2017-Oct-14 21:31N 34°43' W 076°42'0 0.0
2017-Oct-14 21:00N 34°43' W 076°42'0 0.0
2017-Oct-14 20:31N 34°43' W 076°42'0 0.0
2017-Oct-14 20:01N 34°43' W 076°42'0 0.0
2017-Oct-14 19:31N 34°43' W 076°42'0 0.0
2017-Oct-14 19:01N 34°43' W 076°42'0 0.0
2017-Oct-14 18:31N 34°43' W 076°42'0 0.0
2017-Oct-14 18:00N 34°43' W 076°42'0 0.0
2017-Oct-14 17:31N 34°43' W 076°42'0 0.0
2017-Oct-14 17:00N 34°43' W 076°42'0 0.0
2017-Oct-14 16:31N 34°43' W 076°42'0 0.0
2017-Oct-14 16:01N 34°43' W 076°42'0 0.0
2017-Oct-14 15:31N 34°43' W 076°42'0 0.0
2017-Oct-14 15:01N 34°43' W 076°42'0 0.0
2017-Oct-14 14:30N 34°43' W 076°42'0 0.0
2017-Oct-14 14:00N 34°43' W 076°42'0 0.0
2017-Oct-14 13:31N 34°43' W 076°42'0 0.0
2017-Oct-14 13:01N 34°43' W 076°42'0 0.0
2017-Oct-14 12:30N 34°43' W 076°42'0 0.0
2017-Oct-14 12:01N 34°43' W 076°42'0 0.0
2017-Oct-14 11:31N 34°43' W 076°42'0 0.0
2017-Oct-14 11:00N 34°43' W 076°42'0 0.0
2017-Oct-14 10:31N 34°43' W 076°42'0 0.0
2017-Oct-14 10:00N 34°43' W 076°42'0 0.0
2017-Oct-14 09:30N 34°43' W 076°42'0 0.0
2017-Oct-14 09:01N 34°43' W 076°42'0 0.0
2017-Oct-14 08:31N 34°43' W 076°42'0 0.0
2017-Oct-14 08:00N 34°43' W 076°42'0 0.0
2017-Oct-14 07:30N 34°43' W 076°42'0 0.0
2017-Oct-14 07:00N 34°43' W 076°42'0 0.0
2017-Oct-14 06:31N 34°43' W 076°42'0 0.0
2017-Oct-14 06:00N 34°43' W 076°42'1 1.0
2017-Oct-14 05:31N 34°43' W 076°42'1 2.1
2017-Oct-14 05:00N 34°44' W 076°41'3 5.6
2017-Oct-14 04:30N 34°47' W 076°41'4 8.0
2017-Oct-14 04:01N 34°51' W 076°41'4 7.2
2017-Oct-14 03:29N 34°54' W 076°40'3 6.2
2017-Oct-14 03:01N 34°57' W 076°41'  
2017-Oct-09 14:44N 34°59' W 076°42'3 8.0
2017-Oct-09 14:20N 34°56' W 076°39'3 7.6
2017-Oct-09 14:01N 34°54' W 076°41'4 7.3
2017-Oct-09 13:31N 34°50' W 076°41'3 6.5
2017-Oct-09 13:01N 34°47' W 076°41'4 8.1
2017-Oct-09 12:31N 34°43' W 076°42'1 1.0
2017-Oct-09 12:01N 34°43' W 076°42'0 0.0
2017-Oct-09 11:30N 34°43' W 076°42'0 0.0
2017-Oct-09 11:01N 34°43' W 076°42'0 0.0
2017-Oct-09 10:30N 34°43' W 076°42'0 0.0
2017-Oct-09 10:00N 34°43' W 076°42'0 0.0
2017-Oct-09 09:30N 34°43' W 076°42'0 0.0
2017-Oct-09 09:01N 34°43' W 076°42'0 0.0
2017-Oct-09 08:30N 34°43' W 076°42'0 0.0
2017-Oct-09 08:01N 34°43' W 076°42'0 0.0
2017-Oct-09 07:31N 34°43' W 076°42'0 0.0
2017-Oct-09 07:00N 34°43' W 076°42'0 0.0
2017-Oct-09 06:31N 34°43' W 076°42'0 0.0
2017-Oct-09 06:00N 34°43' W 076°42'0 0.0
2017-Oct-09 05:31N 34°43' W 076°42'0 0.0
2017-Oct-09 05:01N 34°43' W 076°42'0 0.0
2017-Oct-09 04:31N 34°43' W 076°42'0 0.0
2017-Oct-09 04:01N 34°43' W 076°42'0 0.0
2017-Oct-09 03:30N 34°43' W 076°42'0 0.0
2017-Oct-09 03:00N 34°43' W 076°42'0 0.0
2017-Oct-09 02:30N 34°43' W 076°42'0 0.0
2017-Oct-09 02:00N 34°43' W 076°42'0 0.0
2017-Oct-09 01:30N 34°43' W 076°42'0 0.0
2017-Oct-09 01:01N 34°43' W 076°42'0 0.8
2017-Oct-09 00:30N 34°43' W 076°42'1 1.9
2017-Oct-09 00:01N 34°44' W 076°41'3 5.1
2017-Oct-08 23:31N 34°46' W 076°41'4 7.1
2017-Oct-08 23:01N 34°50' W 076°41'4 7.8
2017-Oct-08 22:30N 34°54' W 076°41'3 6.3
2017-Oct-08 22:01N 34°57' W 076°40'  

Dump ship's entire track history